createdAt,value
2019-05-21T00:00:05.848Z,22.10
2019-05-21T00:02:35.317Z,21.83
2019-05-21T00:05:05.380Z,22.73
2019-05-21T00:07:34.860Z,23.47
2019-05-21T00:10:03.768Z,24.33
2019-05-21T00:12:33.245Z,22.97
2019-05-21T00:15:02.768Z,24.00
2019-05-21T00:17:32.253Z,24.23
2019-05-21T00:20:01.765Z,24.93
2019-05-21T00:22:31.336Z,23.03
2019-05-21T00:25:00.241Z,22.50
2019-05-21T00:27:29.715Z,23.20
2019-05-21T00:30:34.661Z,22.90
2019-05-21T00:33:39.909Z,25.37
2019-05-21T00:36:45.607Z,25.20
2019-05-21T00:39:32.317Z,24.57
2019-05-21T00:42:01.045Z,26.20
2019-05-21T00:44:36.502Z,24.53
2019-05-21T00:47:08.662Z,25.53
2019-05-21T00:49:38.159Z,21.90
2019-05-21T00:52:09.183Z,22.17
2019-05-21T00:54:39.197Z,23.97
2019-05-21T00:57:08.706Z,21.90
2019-05-21T00:59:38.207Z,21.93
2019-05-21T01:02:07.694Z,22.57
2019-05-21T01:04:37.145Z,22.10
2019-05-21T01:07:06.633Z,21.17
2019-05-21T01:09:36.134Z,22.43
2019-05-21T01:12:05.729Z,21.90
2019-05-21T01:14:35.228Z,22.70
2019-05-21T01:17:04.748Z,23.43
2019-05-21T01:19:34.236Z,20.33
2019-05-21T01:22:03.732Z,22.13
2019-05-21T01:24:33.224Z,20.80
2019-05-21T01:27:02.707Z,20.30
2019-05-21T01:29:32.202Z,22.43
2019-05-21T01:32:01.735Z,23.73
2019-05-21T01:34:31.443Z,23.03
2019-05-21T01:37:01.942Z,24.03
2019-05-21T01:39:31.438Z,23.30
2019-05-21T01:42:00.953Z,23.63
2019-05-21T01:44:30.453Z,26.00
2019-05-21T01:47:00.009Z,24.60
2019-05-21T01:49:29.524Z,26.03
2019-05-21T01:51:59.012Z,26.00
2019-05-21T01:54:28.514Z,26.43
2019-05-21T01:56:58.040Z,26.50
2019-05-21T01:59:27.531Z,26.23
2019-05-21T02:01:57.059Z,23.97
2019-05-21T02:04:26.568Z,24.67
2019-05-21T02:06:56.192Z,23.10
2019-05-21T02:09:25.737Z,23.63
2019-05-21T02:11:55.256Z,22.17
2019-05-21T02:14:24.776Z,22.17
2019-05-21T02:16:54.269Z,21.87
2019-05-21T02:19:23.770Z,23.43
2019-05-21T02:21:53.248Z,26.37
2019-05-21T02:24:22.772Z,26.47
2019-05-21T02:26:52.260Z,28.40
2019-05-21T02:29:21.755Z,28.47
2019-05-21T02:31:51.238Z,28.80
2019-05-21T02:34:20.735Z,28.30
2019-05-21T02:36:50.224Z,29.10
2019-05-21T02:39:19.691Z,29.10
2019-05-21T02:41:49.194Z,30.73
2019-05-21T02:44:18.697Z,31.40
2019-05-21T02:46:48.216Z,32.27
2019-05-21T02:49:17.748Z,32.80
2019-05-21T02:51:47.224Z,32.77
2019-05-21T02:54:16.686Z,32.73
2019-05-21T02:56:46.188Z,33.73
2019-05-21T02:59:15.662Z,36.30
2019-05-21T03:01:57.174Z,34.43
2019-05-21T03:04:26.695Z,36.70
2019-05-21T03:07:15.103Z,37.30
2019-05-21T03:09:44.735Z,36.63
2019-05-21T03:12:14.382Z,39.60
2019-05-21T03:14:43.921Z,40.27
2019-05-21T03:17:13.425Z,40.33
2019-05-21T03:19:42.916Z,41.83
2019-05-21T03:22:12.691Z,43.10
2019-05-21T03:24:42.185Z,42.73
2019-05-21T03:27:11.684Z,42.93
2019-05-21T03:29:41.172Z,41.90
2019-05-21T03:32:10.680Z,44.50
2019-05-21T03:34:40.147Z,41.43
2019-05-21T03:37:09.686Z,42.47
2019-05-21T03:39:39.187Z,40.27
2019-05-21T03:42:08.722Z,39.53
2019-05-21T03:44:38.230Z,40.47
2019-05-21T03:47:07.775Z,41.93
2019-05-21T03:49:37.256Z,39.27
2019-05-21T03:52:06.738Z,38.37
2019-05-21T03:54:36.253Z,40.07
2019-05-21T03:57:05.767Z,39.33
2019-05-21T03:59:35.307Z,39.03
2019-05-21T04:02:04.893Z,38.50
2019-05-21T04:04:34.791Z,39.63
2019-05-21T04:07:04.309Z,40.53
2019-05-21T04:09:33.800Z,39.10
2019-05-21T04:12:03.320Z,40.13
2019-05-21T04:14:40.219Z,38.33
2019-05-21T04:17:29.135Z,42.30
2019-05-21T04:19:58.644Z,40.47
2019-05-21T04:22:28.134Z,40.83
2019-05-21T04:24:57.643Z,42.20
2019-05-21T04:27:27.276Z,39.50
2019-05-21T04:29:56.752Z,40.87
2019-05-21T04:32:26.241Z,39.23
2019-05-21T04:34:55.724Z,39.17
2019-05-21T04:37:25.365Z,38.00
2019-05-21T04:39:54.872Z,39.67
2019-05-21T04:42:24.373Z,41.10
2019-05-21T04:44:53.845Z,40.83
2019-05-21T04:47:22.727Z,39.53
2019-05-21T04:49:52.239Z,43.77
2019-05-21T04:52:21.746Z,43.80
2019-05-21T04:54:51.231Z,44.93
2019-05-21T04:57:20.718Z,43.40
2019-05-21T04:59:50.208Z,43.00
2019-05-21T05:02:19.695Z,43.27
2019-05-21T05:04:49.230Z,44.37
2019-05-21T05:07:27.604Z,43.93
2019-05-21T05:09:50.039Z,44.50
2019-05-21T05:12:19.513Z,45.57
2019-05-21T05:14:49.133Z,43.30
2019-05-21T05:17:18.599Z,41.50
2019-05-21T05:19:48.093Z,40.87
2019-05-21T05:22:17.582Z,41.83
2019-05-21T05:24:46.510Z,38.97
2019-05-21T05:27:16.033Z,42.10
2019-05-21T05:29:45.545Z,40.03
2019-05-21T05:32:15.035Z,37.77
2019-05-21T05:34:44.585Z,38.43
2019-05-21T05:37:14.089Z,37.73
2019-05-21T05:39:43.594Z,39.37
2019-05-21T05:42:13.090Z,39.27
2019-05-21T05:44:42.582Z,35.97
2019-05-21T05:47:12.113Z,38.37
2019-05-21T05:49:45.382Z,37.13
2019-05-21T05:52:16.753Z,37.00
2019-05-21T05:54:46.240Z,35.60
2019-05-21T05:57:15.748Z,36.57
2019-05-21T05:59:47.614Z,38.47
2019-05-21T06:02:17.125Z,35.70
2019-05-21T06:04:46.702Z,36.00
2019-05-21T06:07:16.195Z,37.53
2019-05-21T06:09:45.706Z,36.27
2019-05-21T06:12:15.172Z,34.60
2019-05-21T06:14:44.732Z,35.33
2019-05-21T06:17:17.081Z,36.00
2019-05-21T06:19:46.745Z,35.60
2019-05-21T06:22:16.237Z,37.30
2019-05-21T06:24:45.754Z,36.17
2019-05-21T06:27:15.264Z,34.77
2019-05-21T06:29:44.775Z,32.93
2019-05-21T06:32:14.241Z,33.80
2019-05-21T06:34:43.743Z,33.20
2019-05-21T06:37:13.280Z,33.07
2019-05-21T06:39:42.790Z,32.93
2019-05-21T06:42:12.282Z,32.27
2019-05-21T06:44:41.811Z,32.53
2019-05-21T06:47:11.314Z,30.70
2019-05-21T06:49:40.853Z,31.20
2019-05-21T06:52:10.354Z,31.03
2019-05-21T06:54:39.872Z,30.90
2019-05-21T06:57:09.357Z,31.70
2019-05-21T06:59:38.904Z,32.10
2019-05-21T07:02:08.393Z,30.37
2019-05-21T07:04:37.922Z,29.77
2019-05-21T07:07:07.460Z,30.27
2019-05-21T07:09:36.955Z,29.30
2019-05-21T07:12:06.534Z,29.10
2019-05-21T07:14:35.995Z,28.67
2019-05-21T07:17:05.867Z,27.40
2019-05-21T07:19:38.921Z,28.77
2019-05-21T07:22:12.717Z,28.00
2019-05-21T07:24:38.974Z,27.83
2019-05-21T07:27:08.434Z,27.00
2019-05-21T07:29:37.935Z,26.27
2019-05-21T07:32:06.782Z,26.07
2019-05-21T07:34:36.315Z,24.50
2019-05-21T07:37:05.820Z,24.50
2019-05-21T07:39:35.352Z,23.87
2019-05-21T07:42:04.857Z,24.33
2019-05-21T07:44:34.352Z,25.03
2019-05-21T07:47:03.978Z,22.37
2019-05-21T07:49:33.505Z,22.53
2019-05-21T07:52:03.038Z,20.97
2019-05-21T07:54:32.799Z,20.80
2019-05-21T07:57:02.325Z,20.60
2019-05-21T07:59:31.826Z,19.63
2019-05-21T08:02:02.769Z,18.83
2019-05-21T08:04:34.034Z,17.43
2019-05-21T08:07:03.700Z,16.20
2019-05-21T08:09:33.178Z,14.57
2019-05-21T08:12:22.536Z,14.37
2019-05-21T08:14:33.959Z,13.67
2019-05-21T08:17:03.540Z,13.80
2019-05-21T08:19:33.115Z,13.77
2019-05-21T08:22:02.608Z,13.67
2019-05-21T08:24:32.108Z,13.27
2019-05-21T08:27:01.627Z,13.60
2019-05-21T08:29:31.134Z,12.80
2019-05-21T08:32:00.651Z,11.90
2019-05-21T08:34:30.121Z,12.60
2019-05-21T08:36:59.608Z,13.47
2019-05-21T08:39:29.463Z,14.03
2019-05-21T08:41:59.115Z,14.40
2019-05-21T08:44:28.625Z,14.60
2019-05-21T08:46:58.134Z,14.97
2019-05-21T08:49:27.644Z,14.13
2019-05-21T08:51:57.132Z,14.87
2019-05-21T08:54:44.235Z,14.27
2019-05-21T08:57:13.875Z,15.50
2019-05-21T08:59:43.322Z,15.30
2019-05-21T09:02:13.258Z,15.03
2019-05-21T09:04:46.502Z,16.77
2019-05-21T09:07:15.524Z,16.17
2019-05-21T09:09:50.564Z,15.50
2019-05-21T09:12:17.255Z,15.93
2019-05-21T09:14:49.316Z,15.53
2019-05-21T09:17:18.889Z,15.50
2019-05-21T09:19:48.386Z,15.00
2019-05-21T09:22:17.905Z,16.03
2019-05-21T09:24:47.426Z,14.73
2019-05-21T09:27:19.742Z,14.70
2019-05-21T09:32:31.598Z,13.43
2019-05-21T09:35:01.118Z,14.17
2019-05-21T09:37:32.171Z,12.60
2019-05-21T09:40:01.737Z,13.23
2019-05-21T09:42:31.224Z,13.80
2019-05-21T09:45:00.745Z,13.67
2019-05-21T09:47:30.221Z,12.73
2019-05-21T09:49:59.748Z,12.27
2019-05-21T09:52:29.235Z,12.70
2019-05-21T09:54:58.740Z,13.40
2019-05-21T09:57:34.768Z,12.73
2019-05-21T10:00:10.742Z,13.43
2019-05-21T10:02:40.257Z,13.43
2019-05-21T10:05:09.929Z,13.20
2019-05-21T10:07:40.681Z,13.37
2019-05-21T10:10:15.457Z,13.30
2019-05-21T10:12:45.018Z,13.53
2019-05-21T10:15:15.247Z,13.10
2019-05-21T10:17:44.890Z,12.60
2019-05-21T10:20:14.662Z,12.90
2019-05-21T10:22:45.774Z,14.07
2019-05-21T10:25:16.117Z,13.57
2019-05-21T10:27:45.995Z,12.77
2019-05-21T10:30:15.893Z,13.10
2019-05-21T10:32:45.466Z,14.00
2019-05-21T10:35:16.223Z,13.93
2019-05-21T10:37:54.925Z,12.77
2019-05-21T10:40:18.213Z,13.20
2019-05-21T10:42:47.733Z,13.93
2019-05-21T11:34:06.015Z,12.00
2019-05-21T11:36:35.520Z,11.20
2019-05-21T11:39:07.432Z,11.07
2019-05-21T11:41:36.361Z,11.83
2019-05-21T11:44:05.857Z,12.47
2019-05-21T11:46:35.356Z,11.10
2019-05-21T11:49:05.255Z,11.73
2019-05-21T11:51:34.838Z,11.20
2019-05-21T11:54:03.726Z,10.20
2019-05-21T11:56:36.176Z,10.30
2019-05-21T11:59:04.753Z,12.10
2019-05-21T12:01:34.241Z,11.23
2019-05-21T12:04:03.879Z,11.70
2019-05-21T12:06:33.376Z,11.97
2019-05-21T12:09:04.375Z,13.20
2019-05-21T12:11:58.975Z,11.73
2019-05-21T12:14:28.604Z,12.83
2019-05-21T12:16:58.148Z,12.10
2019-05-21T12:19:27.698Z,11.10
2019-05-21T12:21:57.228Z,10.27
2019-05-21T12:24:27.609Z,10.80
2019-05-21T12:26:57.399Z,11.30
2019-05-21T12:29:26.916Z,10.63
2019-05-21T12:31:58.750Z,10.40
2019-05-21T12:34:28.250Z,10.80
2019-05-21T12:36:57.814Z,10.87
2019-05-21T12:39:27.296Z,11.00
2019-05-21T12:41:56.781Z,11.43
2019-05-21T12:44:26.401Z,11.50
2019-05-21T12:46:55.932Z,12.63
2019-05-21T12:49:26.057Z,11.27
2019-05-21T12:51:55.687Z,11.47
2019-05-21T12:54:25.213Z,11.37
2019-05-21T12:56:54.673Z,11.50
2019-05-21T12:59:24.212Z,11.33
2019-05-21T13:01:53.777Z,12.13
2019-05-21T13:04:23.587Z,13.47
2019-05-21T13:06:53.104Z,13.30
2019-05-21T13:09:32.314Z,13.00
2019-05-21T13:11:53.773Z,13.57
2019-05-21T13:14:23.304Z,16.90
2019-05-21T13:16:52.809Z,18.73
2019-05-21T13:19:22.299Z,20.70
2019-05-21T13:21:51.814Z,21.80
2019-05-21T13:24:21.362Z,24.50
2019-05-21T13:26:51.461Z,24.63
2019-05-21T13:29:21.926Z,26.27
2019-05-21T13:31:57.891Z,25.07
2019-05-21T13:34:27.849Z,23.97
2019-05-21T13:36:57.416Z,24.70
2019-05-21T13:39:26.890Z,24.73
2019-05-21T13:41:56.443Z,24.93
2019-05-21T13:44:25.957Z,22.73
2019-05-21T13:46:55.481Z,22.33
2019-05-21T13:49:24.977Z,21.20
2019-05-21T13:51:54.485Z,19.53
2019-05-21T13:54:23.973Z,20.07
2019-05-21T13:56:53.467Z,19.33
2019-05-21T13:59:23.072Z,18.37
2019-05-21T14:01:52.615Z,17.13
2019-05-21T14:04:23.391Z,18.43
2019-05-21T14:06:52.853Z,16.60
2019-05-21T14:09:22.390Z,15.58
2019-05-21T14:11:52.128Z,16.63
2019-05-21T14:14:21.630Z,15.43
2019-05-21T14:16:51.329Z,16.37
2019-05-21T14:19:20.847Z,16.00
2019-05-21T14:21:50.332Z,17.20
2019-05-21T14:24:19.862Z,15.38
2019-05-21T14:26:49.693Z,15.65
2019-05-21T14:29:19.338Z,16.17
2019-05-21T14:31:48.922Z,16.10
2019-05-21T14:34:18.475Z,17.03
2019-05-21T14:36:48.006Z,17.17
2019-05-21T14:39:19.353Z,16.47
2019-05-21T14:41:48.927Z,16.52
2019-05-21T14:44:18.482Z,15.67
2019-05-21T14:46:52.128Z,16.47
2019-05-21T14:49:23.322Z,15.50
2019-05-21T14:51:52.852Z,15.80
2019-05-21T14:54:26.686Z,15.70
2019-05-21T14:56:53.562Z,14.30
2019-05-21T14:59:23.237Z,15.50
2019-05-21T15:01:52.717Z,14.37
2019-05-21T15:04:22.568Z,12.17
2019-05-21T15:06:52.344Z,13.83
2019-05-21T15:09:22.065Z,13.37
2019-05-21T15:11:51.589Z,12.60
2019-05-21T15:14:21.200Z,12.30
2019-05-21T15:16:50.805Z,12.23
2019-05-21T15:19:20.303Z,12.30
2019-05-21T15:21:53.922Z,12.47
2019-05-21T15:24:23.397Z,12.67
2019-05-21T15:26:52.892Z,12.60
2019-05-21T15:29:22.371Z,12.53
2019-05-21T15:31:51.907Z,11.83
2019-05-21T15:34:21.430Z,12.17
2019-05-21T15:36:50.950Z,12.47
2019-05-21T15:39:20.471Z,12.30
2019-05-21T15:41:50.185Z,11.80
2019-05-21T15:44:19.722Z,12.30
2019-05-21T15:46:50.884Z,12.03
2019-05-21T15:49:34.958Z,12.23
2019-05-21T15:51:50.962Z,11.87
2019-05-21T15:54:20.449Z,12.35
2019-05-21T15:56:49.975Z,11.93
2019-05-21T15:59:19.550Z,11.15
2019-05-21T16:01:49.056Z,11.88
2019-05-21T16:04:18.588Z,11.50
2019-05-21T16:06:48.109Z,11.60
2019-05-21T16:09:17.642Z,11.00
2019-05-21T16:11:47.128Z,10.98
2019-05-21T16:14:16.615Z,10.20
2019-05-21T16:16:46.145Z,11.40
2019-05-21T16:19:15.656Z,10.00
2019-05-21T16:21:45.184Z,10.08
2019-05-21T16:24:14.693Z,10.25
2019-05-21T16:26:44.185Z,10.23
2019-05-21T16:29:13.716Z,9.83
2019-05-21T16:31:43.304Z,9.15
2019-05-21T16:34:12.786Z,9.90
2019-05-21T16:36:42.307Z,9.13
2019-05-21T16:39:11.811Z,9.97
2019-05-21T16:41:44.916Z,9.70
2019-05-21T16:44:12.462Z,9.55
2019-05-21T16:46:42.723Z,9.60
2019-05-21T16:49:12.722Z,8.80
2019-05-21T16:51:43.578Z,9.43
2019-05-21T16:54:13.226Z,9.73
2019-05-21T16:56:42.735Z,8.55
2019-05-21T16:59:12.275Z,9.28
2019-05-21T17:01:41.811Z,8.45
2019-05-21T17:04:11.320Z,8.45
2019-05-21T17:06:40.860Z,8.30
2019-05-21T17:09:13.386Z,8.15
2019-05-21T17:11:43.034Z,8.35
2019-05-21T17:14:12.534Z,7.60
2019-05-21T17:16:42.077Z,7.75
2019-05-21T17:19:11.554Z,7.83
2019-05-21T17:21:41.093Z,7.92
2019-05-21T17:24:10.605Z,7.45
2019-05-21T17:26:42.861Z,6.53
2019-05-21T17:29:11.261Z,7.22
2019-05-21T17:31:40.774Z,7.12
2019-05-21T17:34:10.259Z,7.03
2019-05-21T17:36:39.745Z,6.50
2019-05-21T17:39:09.228Z,6.50
2019-05-21T17:41:38.825Z,6.87
2019-05-21T17:44:08.301Z,7.05
2019-05-21T17:46:37.874Z,6.62
2019-05-21T17:49:07.347Z,6.20
2019-05-21T17:51:36.869Z,6.03
2019-05-21T17:54:06.457Z,6.95
2019-05-21T17:56:35.980Z,6.10
2019-05-21T17:59:05.485Z,6.50
2019-05-21T18:01:35.742Z,6.50
2019-05-21T18:04:05.955Z,6.72
2019-05-21T18:06:34.820Z,5.90
2019-05-21T18:09:08.030Z,6.63
2019-05-21T18:11:37.538Z,6.72
2019-05-21T18:14:07.266Z,7.00
2019-05-21T18:16:36.795Z,7.65
2019-05-21T18:19:08.495Z,9.30
2019-05-21T18:21:38.323Z,9.83
2019-05-21T18:24:07.871Z,10.82
2019-05-21T18:26:39.184Z,12.47
2019-05-21T18:29:08.755Z,12.75
2019-05-21T18:31:38.230Z,13.10
2019-05-21T18:34:07.747Z,12.35
2019-05-21T18:36:37.238Z,12.97
2019-05-21T18:39:07.686Z,13.32
2019-05-21T18:41:37.586Z,13.58
2019-05-21T18:44:07.205Z,13.65
2019-05-21T18:46:36.735Z,14.68
2019-05-21T18:49:06.289Z,14.15
2019-05-21T18:51:35.827Z,13.90
2019-05-21T18:54:05.444Z,13.43
2019-05-21T18:56:35.046Z,13.50
2019-05-21T18:59:04.670Z,13.53
2019-05-21T19:01:34.503Z,13.70
2019-05-21T19:04:04.219Z,14.60
2019-05-21T19:06:33.750Z,15.65
2019-05-21T19:09:03.768Z,16.93
2019-05-21T19:11:33.417Z,16.43
2019-05-21T19:14:02.931Z,16.13
2019-05-21T19:16:32.458Z,17.30
2019-05-21T19:19:02.125Z,15.97
2019-05-21T19:21:31.688Z,16.93
2019-05-21T19:24:01.206Z,16.52
2019-05-21T19:26:30.812Z,16.70
2019-05-21T19:29:00.384Z,17.27
2019-05-21T19:31:29.877Z,17.83
2019-05-21T19:33:59.402Z,17.13
2019-05-21T19:36:28.937Z,17.07
2019-05-21T19:38:58.429Z,17.33
2019-05-21T19:41:27.939Z,17.67
2019-05-21T19:43:57.486Z,17.23
2019-05-21T19:46:27.845Z,17.60
2019-05-21T19:48:57.409Z,16.93
2019-05-21T19:51:26.984Z,17.47
2019-05-21T19:53:56.476Z,17.63
2019-05-21T19:56:25.987Z,18.30
2019-05-21T19:58:55.499Z,18.10
2019-05-21T20:01:25.116Z,18.17
2019-05-21T20:03:54.689Z,18.10
2019-05-21T20:06:24.178Z,17.17
2019-05-21T20:08:53.773Z,18.37
2019-05-21T20:11:23.393Z,17.60
2019-05-21T20:13:53.045Z,19.13
2019-05-21T20:16:23.145Z,17.70
2019-05-21T20:18:52.852Z,17.87
2019-05-21T20:21:22.611Z,18.75
2019-05-21T20:23:52.134Z,17.67
2019-05-21T20:26:23.821Z,18.57
2019-05-21T20:28:54.312Z,17.63
2019-05-21T20:31:24.080Z,17.70
2019-05-21T20:33:53.995Z,18.90
2019-05-21T20:36:24.062Z,18.70
2019-05-21T20:38:53.953Z,18.00
2019-05-21T20:41:24.418Z,21.17
2019-05-21T20:43:59.079Z,19.10
2019-05-21T20:46:25.251Z,21.70
2019-05-21T20:48:55.485Z,20.37
2019-05-21T20:51:24.995Z,20.43
2019-05-21T20:53:54.528Z,20.80
2019-05-21T20:56:24.029Z,21.73
2019-05-21T20:58:53.553Z,20.63
2019-05-21T21:01:25.163Z,21.87
2019-05-21T21:03:54.853Z,20.90
2019-05-21T21:06:34.759Z,20.70
2019-05-21T21:08:56.629Z,22.63
2019-05-21T21:11:26.373Z,21.20
2019-05-21T21:13:56.808Z,20.90
2019-05-21T21:16:26.775Z,22.20
2019-05-21T21:18:56.367Z,22.93
2019-05-21T21:21:26.015Z,22.33
2019-05-21T21:23:56.549Z,21.53
2019-05-21T21:26:27.290Z,22.83
2019-05-21T21:28:56.821Z,22.50
2019-05-21T21:31:26.343Z,22.47
2019-05-21T21:33:55.867Z,21.23
2019-05-21T21:36:25.495Z,21.73
2019-05-21T21:38:55.618Z,22.73
2019-05-21T21:41:25.886Z,22.43
2019-05-21T21:43:55.537Z,24.57
2019-05-21T21:46:25.064Z,22.90
2019-05-21T21:48:55.569Z,23.30
2019-05-21T21:51:25.103Z,23.13
2019-05-21T21:53:54.885Z,24.60
2019-05-21T21:56:24.508Z,22.77
2019-05-21T21:58:54.125Z,23.83
2019-05-21T22:01:50.159Z,24.03
2019-05-21T22:04:24.099Z,23.73
2019-05-21T22:06:54.518Z,24.73
2019-05-21T22:09:35.167Z,24.00
2019-05-21T22:12:06.582Z,23.90
2019-05-21T22:14:49.585Z,24.03
2019-05-21T22:17:09.981Z,24.10
2019-05-21T22:19:40.388Z,23.43
2019-05-21T22:22:10.973Z,24.10
2019-05-21T22:24:40.521Z,23.90
2019-05-21T22:27:10.132Z,23.00
2019-05-21T22:29:40.108Z,23.57
2019-05-21T22:32:09.614Z,24.40
2019-05-21T22:34:39.134Z,23.87
2019-05-21T22:37:11.402Z,25.93
2019-05-21T22:39:42.674Z,22.60
2019-05-21T22:42:13.308Z,21.30
2019-05-21T22:44:42.960Z,20.93
2019-05-21T22:47:14.376Z,21.53
2019-05-21T22:49:43.943Z,21.80
2019-05-21T22:52:14.222Z,22.07
2019-05-21T22:54:43.748Z,21.03
2019-05-21T22:57:13.281Z,21.73
2019-05-21T22:59:42.894Z,20.13
2019-05-21T23:02:17.643Z,20.23
2019-05-21T23:04:47.142Z,20.57
2019-05-21T23:07:17.081Z,19.83
2019-05-21T23:09:46.592Z,19.93
2019-05-21T23:12:16.627Z,21.20
2019-05-21T23:14:46.135Z,21.67
2019-05-21T23:17:15.850Z,21.03
2019-05-21T23:19:45.970Z,20.67
2019-05-21T23:22:18.749Z,21.53
2019-05-21T23:24:50.137Z,21.17
2019-05-21T23:27:20.639Z,21.30
2019-05-21T23:29:50.268Z,20.97
2019-05-21T23:32:20.181Z,21.33
2019-05-21T23:34:52.921Z,21.23
2019-05-21T23:37:25.536Z,21.33
2019-05-21T23:39:55.675Z,22.17
2019-05-21T23:42:29.637Z,20.97
2019-05-21T23:44:56.619Z,20.47
2019-05-21T23:47:26.261Z,21.80
2019-05-21T23:49:55.777Z,21.77
2019-05-21T23:52:26.361Z,21.10
2019-05-21T23:54:55.809Z,21.67
2019-05-21T23:57:28.153Z,21.63
2019-05-21T23:59:57.694Z,22.00
